Time;durP1;ratioP1;P1;durP2;ratioP2;P2;SDS_P1;SDS_P2;PMS_P1;PMS_P2;Temp;Humidity;BMP_temperature;BMP_pressure;BME280_temperature;BME280_humidity;BME280_pressure;Samples;Min_cycle;Max_cycle;Signal;HPM_P1;HPM_P2
2022/12/17 13:07:28;;;;;;;22.30;11.20;;;4.30;76.00;;;;;;4859397;28;87406;-71
2022/12/17 13:09:57;;;;;;;22.65;10.80;;;4.40;76.10;;;;;;4869821;28;87079;-70
2022/12/17 13:12:34;;;;;;;21.65;11.27;;;4.50;75.60;;;;;;4874854;28;87785;-70
2022/12/17 13:15:06;;;;;;;26.35;11.90;;;4.50;75.60;;;;;;4870639;28;86765;-70
2022/12/17 13:17:38;;;;;;;22.35;10.18;;;4.40;76.30;;;;;;4870323;28;87071;-70
2022/12/17 13:20:29;;;;;;;25.75;12.00;;;4.30;76.70;;;;;;4884364;28;86427;-70
2022/12/17 13:23:10;;;;;;;24.80;10.65;;;4.30;76.60;;;;;;4876656;28;87163;-70
2022/12/17 13:25:36;;;;;;;23.50;10.88;;;4.10;76.70;;;;;;4878106;28;87831;-70
2022/12/17 13:28:02;;;;;;;25.63;11.63;;;3.90;77.00;;;;;;4876293;28;87227;-70
2022/12/17 13:30:36;;;;;;;24.42;11.00;;;3.90;77.50;;;;;;4876292;28;86135;-70
2022/12/17 13:33:32;;;;;;;23.70;10.80;;;3.80;77.80;;;;;;4875654;28;86660;-70
2022/12/17 13:36:22;;;;;;;23.85;10.98;;;3.70;77.80;;;;;;4877007;28;86279;-70
2022/12/17 13:38:51;;;;;;;24.88;11.30;;;3.60;78.00;;;;;;4877469;28;88071;-70
2022/12/17 13:41:26;;;;;;;23.13;11.27;;;3.30;78.60;;;;;;4877758;28;88922;-70
2022/12/17 13:43:57;;;;;;;25.48;11.05;;;3.20;78.70;;;;;;4877473;28;86801;-70
2022/12/17 13:46:39;;;;;;;26.33;11.25;;;3.10;79.30;;;;;;4876839;28;86948;-69
2022/12/17 13:49:15;;;;;;;24.55;12.07;;;3.10;79.60;;;;;;4865821;28;87204;-70
2022/12/17 13:51:40;;;;;;;23.73;11.10;;;2.80;80.20;;;;;;4870966;28;86824;-70
2022/12/17 13:54:15;;;;;;;23.30;10.95;;;2.60;80.60;;;;;;4876313;28;86535;-70
2022/12/17 13:56:40;;;;;;;25.25;11.38;;;2.50;81.70;;;;;;4875935;28;86256;-69
2022/12/17 13:59:19;;;;;;;26.23;11.50;;;2.50;81.80;;;;;;4874298;28;87318;-69
2022/12/17 14:01:47;;;;;;;28.38;11.93;;;2.30;82.00;;;;;;4873918;28;87141;-69
2022/12/17 14:04:27;;;;;;;28.23;11.63;;;2.20;82.60;;;;;;4874589;28;87816;-70
2022/12/17 14:06:57;;;;;;;29.00;11.80;;;2.10;83.00;;;;;;4880765;28;86903;-69
2022/12/17 14:09:39;;;;;;;25.65;10.88;;;2.20;83.00;;;;;;4875107;28;86888;-69
2022/12/17 14:12:22;;;;;;;28.98;12.13;;;2.00;83.40;;;;;;4877395;28;87245;-69
2022/12/17 14:14:55;;;;;;;29.35;12.93;;;1.90;83.50;;;;;;4871202;28;86433;-70
2022/12/17 14:17:23;;;;;;;26.55;11.80;;;1.90;83.80;;;;;;4880715;28;86255;-69
2022/12/17 14:20:02;;;;;;;28.67;12.02;;;1.90;83.80;;;;;;4876275;28;87415;-69
2022/12/17 14:22:41;;;;;;;24.65;11.48;;;1.80;84.40;;;;;;4878228;28;87020;-70
2022/12/17 14:25:37;;;;;;;28.85;12.55;;;1.70;84.70;;;;;;4876110;28;86482;-70
2022/12/17 14:28:05;;;;;;;28.90;12.95;;;1.60;85.40;;;;;;4871759;28;87107;-70
2022/12/17 14:30:41;;;;;;;27.30;11.88;;;1.50;85.70;;;;;;4875026;28;89203;-69
2022/12/17 14:33:29;;;;;;;25.13;11.93;;;1.60;85.80;;;;;;4879429;28;87923;-69
2022/12/17 14:36:07;;;;;;;29.02;12.32;;;1.50;85.80;;;;;;4876815;28;86175;-69
2022/12/17 14:38:33;;;;;;;26.95;11.98;;;1.40;86.10;;;;;;4877233;28;87148;-70
2022/12/17 14:42:24;;;;;;;26.73;11.80;;;1.30;86.20;;;;;;4876743;28;86730;-71
2022/12/17 14:44:01;;;;;;;25.38;11.50;;;1.30;86.60;;;;;;4879528;28;86291;-70
2022/12/17 14:46:31;;;;;;;26.27;11.90;;;1.20;86.90;;;;;;4877458;28;86987;-71
2022/12/17 14:49:02;;;;;;;29.48;12.75;;;1.20;86.90;;;;;;4876151;28;86120;-69
2022/12/17 14:51:37;;;;;;;31.48;14.00;;;1.20;87.30;;;;;;4870815;28;87034;-69
2022/12/17 14:54:30;;;;;;;39.92;17.33;;;1.10;87.80;;;;;;4879112;28;87159;-70
2022/12/17 14:56:57;;;;;;;32.05;15.50;;;1.10;88.40;;;;;;4880072;28;87778;-70
2022/12/17 14:59:25;;;;;;;31.30;13.30;;;1.10;88.20;;;;;;4880825;28;86669;-70
2022/12/17 15:01:52;;;;;;;32.00;14.05;;;1.00;87.80;;;;;;4874432;28;87454;-69
2022/12/17 15:04:18;;;;;;;33.92;15.32;;;1.00;88.20;;;;;;4882165;28;87364;-69
2022/12/17 15:06:44;;;;;;;35.08;15.50;;;0.90;88.40;;;;;;4881292;28;86732;-68
2022/12/17 15:09:12;;;;;;;34.65;14.50;;;0.90;89.40;;;;;;4877220;28;87106;-69
2022/12/17 15:11:37;;;;;;;32.95;13.48;;;0.80;89.90;;;;;;4874411;28;86586;-67
2022/12/17 15:14:03;;;;;;;32.47;14.00;;;0.80;90.00;;;;;;4877280;28;86905;-69
2022/12/17 15:16:30;;;;;;;36.63;16.08;;;0.90;90.00;;;;;;4873628;28;86326;-68
2022/12/17 15:18:55;;;;;;;36.75;15.35;;;1.00;90.00;;;;;;4880423;28;86257;-70
2022/12/17 15:21:23;;;;;;;29.05;12.65;;;1.00;90.10;;;;;;4876081;28;88228;-69
2022/12/17 15:23:49;;;;;;;28.27;12.57;;;1.10;90.20;;;;;;4880166;28;87253;-68
2022/12/17 15:26:16;;;;;;;31.20;12.70;;;1.10;90.10;;;;;;4879188;28;86717;-69
2022/12/17 15:28:42;;;;;;;32.17;13.13;;;1.10;90.10;;;;;;4879310;28;87077;-70
2022/12/17 15:31:11;;;;;;;29.73;12.30;;;1.10;90.10;;;;;;4878288;28;86683;-69
2022/12/17 15:33:37;;;;;;;28.90;11.93;;;1.00;90.00;;;;;;4874629;28;87166;-70
2022/12/17 15:36:03;;;;;;;31.75;12.35;;;0.90;90.20;;;;;;4879540;28;88084;-69
2022/12/17 15:38:29;;;;;;;30.05;12.10;;;0.80;90.40;;;;;;4880209;28;86032;-72
2022/12/17 15:40:55;;;;;;;30.98;11.35;;;0.70;90.60;;;;;;4879549;28;86812;-71
2022/12/17 15:43:21;;;;;;;30.50;13.15;;;0.70;90.80;;;;;;4869473;28;86853;-70
2022/12/17 15:45:49;;;;;;;28.85;12.05;;;0.50;91.40;;;;;;4878073;28;87858;-70
2022/12/17 15:48:23;;;;;;;30.17;12.25;;;0.50;91.10;;;;;;4880139;28;87416;-70
2022/12/17 15:50:49;;;;;;;27.92;11.23;;;0.40;91.40;;;;;;4874351;28;87299;-69
2022/12/17 15:53:15;;;;;;;29.60;12.77;;;0.30;91.60;;;;;;4879002;28;87148;-69
2022/12/17 15:55:41;;;;;;;31.85;13.05;;;0.20;91.80;;;;;;4875870;28;86953;-69
2022/12/17 15:58:10;;;;;;;28.70;12.35;;;0.10;92.00;;;;;;4879855;28;87084;-70
2022/12/17 16:00:35;;;;;;;32.10;12.90;;;0.10;91.90;;;;;;4875702;28;87476;-70
2022/12/17 16:03:01;;;;;;;31.75;12.90;;;0.10;91.90;;;;;;4876987;28;87032;-70
2022/12/17 16:05:27;;;;;;;28.75;12.35;;;0.00;92.20;;;;;;4886295;28;86915;-73
2022/12/17 16:07:52;;;;;;;31.90;13.48;;;0.00;92.20;;;;;;4874282;28;87119;-70
2022/12/17 16:10:18;;;;;;;31.33;13.10;;;0.10;92.50;;;;;;4875650;28;88315;-69
2022/12/17 16:12:44;;;;;;;33.38;13.25;;;0.10;92.60;;;;;;4875792;28;86949;-73
2022/12/17 16:15:11;;;;;;;28.65;12.55;;;0.10;92.90;;;;;;4877924;28;86340;-71
2022/12/17 16:17:37;;;;;;;29.63;12.68;;;0.30;92.50;;;;;;4873958;28;86288;-70
2022/12/17 16:20:04;;;;;;;29.02;13.13;;;0.30;92.40;;;;;;4878465;28;87218;-69
2022/12/17 16:22:30;;;;;;;35.88;13.32;;;0.40;92.50;;;;;;4879607;28;87639;-70
2022/12/17 16:24:56;;;;;;;32.08;13.02;;;0.50;92.30;;;;;;4876931;28;86785;-69
2022/12/17 16:27:22;;;;;;;30.67;13.82;;;0.50;92.00;;;;;;4879417;28;86246;-69
2022/12/17 16:29:47;;;;;;;34.90;14.52;;;0.50;92.00;;;;;;4876384;28;86520;-70
2022/12/17 16:32:16;;;;;;;34.25;13.50;;;0.60;91.90;;;;;;4877923;28;87031;-69
2022/12/17 16:34:42;;;;;;;31.23;12.88;;;0.50;91.80;;;;;;4873129;28;87174;-70
2022/12/17 16:37:08;;;;;;;30.13;12.75;;;0.50;91.90;;;;;;4875772;28;86963;-69
2022/12/17 16:39:33;;;;;;;25.88;12.02;;;0.50;91.90;;;;;;4871246;28;87629;-69
2022/12/17 16:41:59;;;;;;;33.60;13.40;;;0.40;92.00;;;;;;4875396;28;86870;-70
2022/12/17 16:44:25;;;;;;;31.30;13.05;;;0.40;92.10;;;;;;4871166;28;86935;-70
2022/12/17 16:46:51;;;;;;;30.55;12.73;;;0.40;92.10;;;;;;4874631;28;86809;-70
2022/12/17 16:49:19;;;;;;;32.38;14.00;;;0.40;92.30;;;;;;4874857;28;86940;-70
2022/12/17 16:51:47;;;;;;;29.25;13.23;;;0.50;92.40;;;;;;4874952;28;86461;-70
2022/12/17 16:54:15;;;;;;;28.48;11.52;;;0.50;92.30;;;;;;4878494;28;86939;-70
2022/12/17 16:56:43;;;;;;;33.65;13.95;;;0.50;92.20;;;;;;4878176;28;86271;-70
2022/12/17 16:59:11;;;;;;;32.00;13.68;;;0.40;92.50;;;;;;4878274;28;89220;-69
2022/12/17 17:01:39;;;;;;;34.63;13.55;;;0.40;92.60;;;;;;4877391;28;87919;-70
2022/12/17 17:04:06;;;;;;;31.45;13.40;;;0.30;92.70;;;;;;4879163;28;86859;-69
2022/12/17 17:06:36;;;;;;;33.65;14.68;;;0.20;92.80;;;;;;4880426;28;86637;-70
2022/12/17 17:09:03;;;;;;;34.75;14.57;;;0.10;92.90;;;;;;4879815;28;87459;-69
2022/12/17 17:11:29;;;;;;;35.45;14.63;;;0.00;93.30;;;;;;4879614;28;87139;-70
2022/12/17 17:13:55;;;;;;;41.60;16.08;;;-0.10;93.40;;;;;;4879903;28;86743;-69
2022/12/17 17:16:23;;;;;;;38.05;15.98;;;-0.20;93.90;;;;;;4879072;28;86465;-69
2022/12/17 17:18:49;;;;;;;39.83;16.80;;;-0.30;94.00;;;;;;4879536;28;87978;-69
2022/12/17 17:21:18;;;;;;;44.58;19.08;;;-0.30;94.10;;;;;;4881673;28;87039;-69
2022/12/17 17:23:48;;;;;;;39.78;18.27;;;-0.40;94.10;;;;;;4880764;28;87903;-69
2022/12/17 17:26:14;;;;;;;43.50;18.60;;;-0.40;94.40;;;;;;4881567;28;86716;-69
2022/12/17 17:28:40;;;;;;;46.90;18.80;;;-0.50;94.60;;;;;;4880054;28;86715;-69
2022/12/17 17:31:09;;;;;;;45.83;18.92;;;-0.60;95.00;;;;;;4881382;28;87352;-68
2022/12/17 17:33:38;;;;;;;50.08;19.73;;;-0.70;95.20;;;;;;4881215;28;87163;-69
2022/12/17 17:36:09;;;;;;;50.85;20.73;;;-0.70;95.50;;;;;;4880401;28;87830;-68
2022/12/17 17:38:38;;;;;;;51.65;21.75;;;-0.80;95.50;;;;;;4877825;28;87708;-69
2022/12/17 17:41:07;;;;;;;58.25;23.25;;;-0.90;95.80;;;;;;4883935;28;87004;-68
2022/12/17 17:43:33;;;;;;;56.45;22.60;;;-0.90;96.10;;;;;;4883266;28;86568;-69
2022/12/17 17:46:06;;;;;;;51.72;22.13;;;-0.90;96.30;;;;;;4883310;28;86299;-69
2022/12/17 17:48:33;;;;;;;52.60;21.60;;;-0.90;96.20;;;;;;4878971;28;88588;-69
2022/12/17 17:51:00;;;;;;;54.40;21.20;;;-1.00;96.40;;;;;;4891880;28;87095;-69
2022/12/17 17:53:26;;;;;;;50.15;21.23;;;-1.00;96.50;;;;;;4882979;28;86952;-68
2022/12/17 17:55:51;;;;;;;52.47;21.00;;;-1.00;96.50;;;;;;4884239;28;86414;-69
2022/12/17 17:58:17;;;;;;;49.63;19.48;;;-1.10;96.70;;;;;;4883373;28;87509;-69
2022/12/17 18:00:43;;;;;;;50.47;20.40;;;-1.10;96.70;;;;;;4882744;28;87025;-69
2022/12/17 18:03:08;;;;;;;50.22;20.55;;;-1.10;96.60;;;;;;4883627;28;86354;-69
2022/12/17 18:05:38;;;;;;;51.85;20.70;;;-1.20;96.50;;;;;;4884300;28;86281;-69
2022/12/17 18:08:04;;;;;;;66.65;25.73;;;-1.20;96.50;;;;;;4883871;28;87149;-69
2022/12/17 18:10:30;;;;;;;69.32;28.75;;;-1.20;96.50;;;;;;4882896;28;86887;-69
2022/12/17 18:15:40;;;;;;;;;;;-1.20;96.60;;;;;;4878389;28;87082;-69
2022/12/17 18:18:05;;;;;;;43.10;17.60;;;-1.30;96.80;;;;;;4882887;28;87276;-69
2022/12/17 18:20:31;;;;;;;49.42;19.05;;;-1.40;96.90;;;;;;4881979;28;86612;-69
2022/12/17 18:22:57;;;;;;;46.35;18.70;;;-1.40;97.00;;;;;;4880381;28;86970;-69
2022/12/17 18:25:23;;;;;;;43.45;17.20;;;-1.40;97.20;;;;;;4879835;28;86982;-68
2022/12/17 18:27:51;;;;;;;45.60;17.50;;;-1.40;97.10;;;;;;4883662;28;87488;-69
2022/12/17 18:30:18;;;;;;;49.05;18.20;;;-1.40;96.90;;;;;;4883602;28;86889;-69
2022/12/17 18:32:44;;;;;;;47.05;18.50;;;-1.50;96.90;;;;;;4883194;28;86770;-69
2022/12/17 18:35:09;;;;;;;43.03;17.50;;;-1.50;97.30;;;;;;4882908;28;86377;-69
2022/12/17 18:37:35;;;;;;;43.92;17.55;;;-1.60;98.00;;;;;;4883056;28;87559;-69
2022/12/17 18:40:01;;;;;;;43.88;17.35;;;-1.60;98.10;;;;;;4883248;28;87223;-69
2022/12/17 18:45:11;;;;;;;;;;;-1.60;98.40;;;;;;4877155;28;86692;-69
2022/12/17 18:47:36;;;;;;;44.47;16.27;;;-1.60;98.70;;;;;;4893720;28;86786;-69
2022/12/17 18:50:02;;;;;;;45.25;16.92;;;-1.60;99.00;;;;;;4881491;28;87025;-69
2022/12/17 18:52:28;;;;;;;40.60;15.60;;;-1.70;99.00;;;;;;4882679;28;86238;-69
2022/12/17 18:54:54;;;;;;;40.28;15.63;;;-1.70;99.10;;;;;;4884712;28;85580;-69
2022/12/17 18:57:19;;;;;;;45.20;16.60;;;-1.60;99.10;;;;;;4879378;28;90389;-69
2022/12/17 18:59:45;;;;;;;36.33;14.85;;;-1.60;98.90;;;;;;4883853;28;86278;-69
2022/12/17 19:02:12;;;;;;;46.50;15.70;;;-1.50;98.60;;;;;;4882838;28;87354;-69
2022/12/17 19:04:38;;;;;;;39.63;15.75;;;-1.50;98.60;;;;;;4886954;28;86838;-69
2022/12/17 19:07:04;;;;;;;42.63;16.42;;;-1.40;98.50;;;;;;4882285;28;86769;-69
2022/12/17 19:09:34;;;;;;;44.85;17.38;;;-1.40;98.40;;;;;;4881847;28;87016;-69
2022/12/17 19:12:02;;;;;;;41.97;16.80;;;-1.30;98.70;;;;;;4882602;28;86601;-69
2022/12/17 19:14:28;;;;;;;44.65;16.83;;;-1.30;98.50;;;;;;4883467;28;86774;-69
2022/12/17 19:16:56;;;;;;;43.45;16.58;;;-1.20;98.80;;;;;;4882720;28;87445;-69
2022/12/17 19:19:23;;;;;;;42.05;16.38;;;-1.20;98.60;;;;;;4881898;28;86212;-69
2022/12/17 19:21:50;;;;;;;41.90;16.27;;;-1.10;98.70;;;;;;4882314;28;86709;-69
2022/12/17 19:24:18;;;;;;;47.42;18.38;;;-1.10;98.10;;;;;;4880418;28;86661;-69
2022/12/17 19:26:44;;;;;;;48.05;17.83;;;-1.00;98.30;;;;;;4882093;28;88390;-69
2022/12/17 19:29:12;;;;;;;42.65;16.33;;;-1.00;98.60;;;;;;4882655;28;87953;-69
2022/12/17 19:31:38;;;;;;;39.72;16.00;;;-1.00;98.30;;;;;;4883018;28;86533;-69
2022/12/17 19:34:08;;;;;;;37.60;15.55;;;-1.00;98.10;;;;;;4881703;28;86675;-69
2022/12/17 19:36:34;;;;;;;39.83;15.63;;;-1.00;98.00;;;;;;4883082;28;86556;-69
2022/12/17 19:39:03;;;;;;;38.65;15.43;;;-1.10;97.90;;;;;;4879598;28;87523;-69
2022/12/17 19:41:33;;;;;;;39.28;16.08;;;-1.10;97.90;;;;;;4881091;28;86707;-69
2022/12/17 19:44:02;;;;;;;43.80;16.70;;;-1.10;97.90;;;;;;4881588;28;86244;-69
2022/12/17 19:46:29;;;;;;;39.30;15.10;;;-1.20;97.90;;;;;;4874331;28;88630;-68
2022/12/17 19:48:55;;;;;;;39.13;15.65;;;-1.20;97.60;;;;;;4883152;28;87114;-69
2022/12/17 19:51:23;;;;;;;44.10;16.55;;;-1.20;97.50;;;;;;4876945;28;88016;-69
2022/12/17 19:53:49;;;;;;;40.70;15.15;;;-1.30;97.60;;;;;;4880649;28;86754;-69
2022/12/17 19:56:18;;;;;;;41.65;15.85;;;-1.30;97.90;;;;;;4880479;28;86673;-69
2022/12/17 19:58:46;;;;;;;41.00;15.20;;;-1.40;97.70;;;;;;4879068;28;86340;-69
2022/12/17 20:01:12;;;;;;;59.22;21.15;;;-1.40;97.80;;;;;;4879911;28;86983;-69
2022/12/17 20:03:39;;;;;;;61.15;20.88;;;-1.40;98.00;;;;;;4874758;28;86998;-69
2022/12/17 20:06:07;;;;;;;40.03;15.60;;;-1.40;98.20;;;;;;4879096;28;87292;-69
2022/12/17 20:08:33;;;;;;;45.17;16.83;;;-1.50;98.00;;;;;;4880028;28;86857;-69
2022/12/17 20:11:31;;;;;;;41.95;16.63;;;-1.50;97.90;;;;;;4878787;28;86952;-68
2022/12/17 20:14:12;;;;;;;40.10;15.82;;;-1.60;98.30;;;;;;4883010;28;87095;-68
2022/12/17 20:16:43;;;;;;;44.15;15.50;;;-1.70;98.80;;;;;;4878480;28;87656;-68
2022/12/17 20:19:23;;;;;;;38.63;15.35;;;-1.70;98.30;;;;;;4881876;28;87857;-69
2022/12/17 20:21:49;;;;;;;33.63;12.90;;;-1.80;97.80;;;;;;4876091;28;87210;-69
2022/12/17 20:24:16;;;;;;;36.90;14.63;;;-1.80;97.80;;;;;;4876938;28;86630;-69
2022/12/17 20:26:43;;;;;;;39.92;15.73;;;-1.80;97.80;;;;;;4883234;28;87854;-69
2022/12/17 20:29:09;;;;;;;40.90;15.05;;;-1.80;98.00;;;;;;4879769;28;87907;-68
2022/12/17 20:31:35;;;;;;;37.75;14.20;;;-1.90;97.50;;;;;;4881234;28;87474;-68
2022/12/17 20:34:03;;;;;;;38.25;14.52;;;-1.90;97.70;;;;;;4872141;28;85754;-68
2022/12/17 20:36:29;;;;;;;41.88;14.98;;;-1.90;97.60;;;;;;4876443;28;87288;-68
2022/12/17 20:38:55;;;;;;;34.83;13.35;;;-2.00;97.50;;;;;;4882833;28;87418;-68
2022/12/17 20:41:23;;;;;;;34.53;12.95;;;-2.00;97.80;;;;;;4877257;28;87554;-68
2022/12/17 20:43:49;;;;;;;38.60;13.68;;;-2.10;97.80;;;;;;4874908;28;86265;-68
2022/12/17 20:46:16;;;;;;;39.17;13.82;;;-2.10;97.70;;;;;;4879821;28;86617;-68
2022/12/17 20:48:42;;;;;;;38.95;14.80;;;-2.10;97.70;;;;;;4879995;28;87159;-69
2022/12/17 20:51:15;;;;;;;37.28;13.45;;;-2.10;98.00;;;;;;4880063;28;86582;-68
2022/12/17 20:53:42;;;;;;;35.13;13.50;;;-2.10;97.90;;;;;;4876368;28;86277;-69
2022/12/17 20:56:13;;;;;;;35.92;15.02;;;-2.20;97.80;;;;;;4876831;28;87042;-69
2022/12/17 20:58:40;;;;;;;41.03;14.70;;;-2.20;97.70;;;;;;4882620;28;86271;-69
2022/12/17 21:01:12;;;;;;;36.35;14.18;;;-2.20;97.90;;;;;;4876881;28;86797;-69
2022/12/17 21:03:39;;;;;;;37.50;13.98;;;-2.20;97.80;;;;;;4880950;28;88530;-68
2022/12/17 21:06:20;;;;;;;37.35;13.88;;;-2.20;97.50;;;;;;4881286;28;88004;-69
2022/12/17 21:08:47;;;;;;;36.33;13.60;;;-2.30;97.40;;;;;;4866992;28;88044;-69
2022/12/17 21:11:17;;;;;;;37.10;14.57;;;-2.30;97.20;;;;;;4868828;28;88498;-69
2022/12/17 21:13:43;;;;;;;42.05;16.25;;;-2.30;97.50;;;;;;4873793;28;86948;-68
2022/12/17 21:16:12;;;;;;;45.70;18.75;;;-2.40;97.50;;;;;;4882258;28;86733;-68
2022/12/17 21:18:37;;;;;;;49.38;20.05;;;-2.50;97.60;;;;;;4882088;28;87293;-68
2022/12/17 21:21:09;;;;;;;49.90;20.40;;;-2.50;97.70;;;;;;4881905;28;87055;-68
2022/12/17 21:23:36;;;;;;;50.47;19.40;;;-2.50;97.60;;;;;;4882759;28;87591;-69
2022/12/17 21:26:03;;;;;;;47.15;18.52;;;-2.50;97.60;;;;;;4884482;28;88488;-69
2022/12/17 21:28:31;;;;;;;47.80;17.60;;;-2.50;97.70;;;;;;4880732;28;87118;-69
2022/12/17 21:30:56;;;;;;;52.08;19.00;;;-2.50;97.70;;;;;;4878302;28;87615;-69
2022/12/17 21:33:22;;;;;;;46.58;18.80;;;-2.50;97.90;;;;;;4874774;28;87098;-69
2022/12/17 21:35:48;;;;;;;49.92;19.08;;;-2.50;97.80;;;;;;4880200;28;87245;-69
2022/12/17 21:38:14;;;;;;;47.80;17.98;;;-2.50;97.90;;;;;;4874194;28;87355;-68
2022/12/17 21:40:40;;;;;;;53.03;19.17;;;-2.50;98.20;;;;;;4877288;28;86346;-68
2022/12/17 21:43:06;;;;;;;54.08;19.23;;;-2.50;98.20;;;;;;4880346;28;86453;-69
2022/12/17 21:45:38;;;;;;;50.65;18.98;;;-2.50;98.30;;;;;;4878577;28;87149;-69
2022/12/17 21:48:05;;;;;;;52.50;18.63;;;-2.50;98.00;;;;;;4864677;28;87039;-69
2022/12/17 21:50:31;;;;;;;43.97;16.35;;;-2.50;97.90;;;;;;4883254;28;86524;-69
2022/12/17 21:52:57;;;;;;;47.38;16.98;;;-2.50;97.60;;;;;;4879470;28;87025;-69
2022/12/17 21:55:24;;;;;;;40.17;15.38;;;-2.60;97.60;;;;;;4873783;28;87567;-69
2022/12/17 21:57:49;;;;;;;41.95;15.75;;;-2.50;97.60;;;;;;4876079;28;88237;-69
2022/12/17 22:00:16;;;;;;;43.40;15.35;;;-2.60;97.60;;;;;;4877328;28;86714;-69
2022/12/17 22:02:41;;;;;;;47.50;16.52;;;-2.50;98.00;;;;;;4874766;28;88173;-69
2022/12/17 22:05:08;;;;;;;45.65;16.52;;;-2.50;97.90;;;;;;4873365;28;88790;-70
2022/12/17 22:07:33;;;;;;;40.47;13.85;;;-2.40;98.10;;;;;;4876999;28;87020;-69
2022/12/17 22:09:59;;;;;;;44.40;16.00;;;-2.40;98.30;;;;;;4872588;28;86892;-69
2022/12/17 22:15:09;;;;;;;40.03;14.77;;;-2.20;98.60;;;;;;4879978;28;87045;-69
2022/12/17 22:17:36;;;;;;;42.53;15.52;;;-2.20;98.40;;;;;;4881911;28;86969;-69
2022/12/17 22:20:06;;;;;;;39.30;14.60;;;-2.20;98.00;;;;;;4871643;28;88005;-69
2022/12/17 22:22:31;;;;;;;42.50;15.13;;;-2.20;97.90;;;;;;4873965;28;86834;-68
2022/12/17 22:24:57;;;;;;;34.92;13.88;;;-2.20;98.00;;;;;;4877400;28;89330;-68
2022/12/17 22:27:23;;;;;;;40.17;15.40;;;-2.20;97.90;;;;;;4872225;28;86834;-69
2022/12/17 22:35:17;;;;;;;;;;;-2.40;98.20;;;;;;4879093;28;86879;-68
2022/12/17 22:37:43;;;;;;;38.47;15.32;;;-2.40;98.20;;;;;;4874199;28;86538;-68
2022/12/17 22:40:09;;;;;;;40.22;14.68;;;-2.50;98.10;;;;;;4881876;28;86932;-68
2022/12/17 22:45:19;;;;;;;39.47;14.32;;;-2.60;98.00;;;;;;4874827;28;89006;-68
2022/12/17 22:47:45;;;;;;;34.92;13.82;;;-2.60;97.80;;;;;;4882092;28;87976;-69
2022/12/17 22:50:11;;;;;;;37.88;12.77;;;-2.50;98.00;;;;;;4869659;28;87152;-68
2022/12/17 22:52:37;;;;;;;32.63;12.45;;;-2.60;98.00;;;;;;4878255;28;87254;-68
2022/12/17 22:55:03;;;;;;;35.30;12.90;;;-2.60;98.00;;;;;;4872369;28;87278;-68
2022/12/17 22:57:29;;;;;;;34.15;12.65;;;-2.50;97.90;;;;;;4878315;28;87665;-68
2022/12/17 22:59:55;;;;;;;34.45;12.55;;;-2.50;97.70;;;;;;4876993;28;86922;-68
